Time;durP1;ratioP1;P1;durP2;ratioP2;P2;SDS_P1;SDS_P2;PMS_P1;PMS_P2;Temp;Humidity;BMP_temperature;BMP_pressure;BME280_temperature;BME280_humidity;BME280_pressure;Samples;Min_cycle;Max_cycle;Signal;HPM_P1;HPM_P2
2024/01/05 00:01:23;;;;;;;6.93;1.77;;;6.30;70.40;;;;;;4918333;29;20032;-75
2024/01/05 00:03:49;;;;;;;7.88;1.55;;;6.40;70.10;;;;;;4918080;29;20474;-75
2024/01/05 00:06:14;;;;;;;10.73;1.80;;;6.40;69.70;;;;;;4918090;29;20131;-75
2024/01/05 00:08:40;;;;;;;8.63;1.85;;;6.40;69.40;;;;;;4917906;29;20052;-76
2024/01/05 00:11:06;;;;;;;6.28;1.50;;;6.40;68.90;;;;;;4917884;29;20079;-75
2024/01/05 00:13:31;;;;;;;3.58;1.35;;;6.50;68.50;;;;;;4917884;29;20442;-75
2024/01/05 00:15:57;;;;;;;3.67;1.20;;;6.70;68.10;;;;;;4916686;29;20063;-76
2024/01/05 00:18:23;;;;;;;7.63;1.63;;;6.70;68.00;;;;;;4901047;29;20466;-76
2024/01/05 00:20:48;;;;;;;8.93;1.85;;;6.60;67.70;;;;;;4901090;29;20383;-75
2024/01/05 00:23:14;;;;;;;5.25;1.45;;;6.60;67.60;;;;;;4917882;29;20040;-76
2024/01/05 00:25:40;;;;;;;8.20;1.58;;;6.60;67.80;;;;;;4917717;29;20052;-75
2024/01/05 00:28:05;;;;;;;6.00;1.52;;;6.70;66.90;;;;;;4900654;29;20516;-76
2024/01/05 00:30:34;;;;;;;5.30;1.40;;;6.70;66.70;;;;;;4917703;29;20028;-76
2024/01/05 00:33:00;;;;;;;7.97;1.85;;;6.70;66.80;;;;;;4917524;29;20390;-76
2024/01/05 00:35:26;;;;;;;4.82;1.77;;;6.70;67.10;;;;;;4917490;29;20017;-76
2024/01/05 00:37:51;;;;;;;7.50;1.60;;;6.70;67.10;;;;;;4917572;29;20156;-76
2024/01/05 00:40:17;;;;;;;3.95;1.15;;;6.80;66.90;;;;;;4917462;29;20023;-76
2024/01/05 00:42:42;;;;;;;8.25;1.83;;;6.80;67.00;;;;;;4915812;29;20381;-76
2024/01/05 00:45:08;;;;;;;6.82;1.73;;;6.90;67.30;;;;;;4917404;29;20032;-77
2024/01/05 00:47:34;;;;;;;6.65;1.80;;;6.80;67.30;;;;;;4917399;29;20032;-76
2024/01/05 00:49:59;;;;;;;9.00;1.50;;;6.90;67.10;;;;;;4917326;29;20495;-76
2024/01/05 00:52:25;;;;;;;7.97;1.55;;;6.80;67.20;;;;;;4920000;29;20036;-76
2024/01/05 00:54:50;;;;;;;9.20;1.40;;;6.80;67.00;;;;;;4917289;29;20474;-76
2024/01/05 00:57:16;;;;;;;5.53;1.50;;;6.80;67.10;;;;;;4917256;29;20028;-76
2024/01/05 00:59:41;;;;;;;4.32;0.98;;;6.90;67.20;;;;;;4917118;29;20493;-76
2024/01/05 01:02:07;;;;;;;6.95;1.27;;;6.80;66.80;;;;;;4917068;29;20064;-76
2024/01/05 01:04:33;;;;;;;7.82;1.42;;;6.80;67.00;;;;;;4917079;29;20431;-76
2024/01/05 01:06:58;;;;;;;11.00;1.83;;;6.80;67.30;;;;;;4917004;29;20031;-76
2024/01/05 01:09:24;;;;;;;9.20;1.70;;;6.80;67.60;;;;;;4916834;29;20059;-75
2024/01/05 01:11:50;;;;;;;5.55;1.40;;;6.80;67.70;;;;;;4916915;29;20107;-76
2024/01/05 01:14:16;;;;;;;5.93;1.50;;;6.80;67.80;;;;;;4899922;29;20124;-76
2024/01/05 01:16:41;;;;;;;4.63;1.63;;;6.80;67.70;;;;;;4916738;29;20102;-76
2024/01/05 01:19:07;;;;;;;7.47;1.70;;;6.80;67.40;;;;;;4916850;29;20020;-75
2024/01/05 01:21:32;;;;;;;8.63;1.60;;;6.80;67.50;;;;;;4916829;29;20038;-76
2024/01/05 01:23:58;;;;;;;5.15;1.40;;;6.80;67.30;;;;;;4916816;29;20090;-75
2024/01/05 01:26:23;;;;;;;6.95;1.48;;;6.80;67.20;;;;;;4916816;29;20099;-76
2024/01/05 01:28:50;;;;;;;5.30;1.25;;;6.80;67.00;;;;;;4917091;29;20035;-75
2024/01/05 01:31:15;;;;;;;7.15;1.63;;;6.80;66.80;;;;;;4916564;29;20485;-75
2024/01/05 01:33:41;;;;;;;5.50;1.05;;;6.90;66.80;;;;;;4916800;29;20163;-75
2024/01/05 01:36:06;;;;;;;4.82;1.20;;;6.90;66.40;;;;;;4915403;29;20512;-75
2024/01/05 01:38:32;;;;;;;7.60;1.08;;;6.90;66.00;;;;;;4916695;29;20036;-78
2024/01/05 01:40:58;;;;;;;8.15;1.58;;;6.90;65.90;;;;;;4915368;29;20490;-76
2024/01/05 01:43:25;;;;;;;7.82;1.65;;;7.00;65.50;;;;;;4916622;29;20028;-77
2024/01/05 01:45:55;;;;;;;2.92;1.00;;;7.00;64.90;;;;;;4916570;29;20021;-76
2024/01/05 01:48:22;;;;;;;7.45;1.48;;;7.00;64.80;;;;;;4916540;29;20039;-76
2024/01/05 01:50:49;;;;;;;6.15;1.17;;;7.10;64.30;;;;;;4916518;29;20104;-76
2024/01/05 01:53:18;;;;;;;4.28;1.50;;;7.10;64.10;;;;;;4917536;29;20462;-76
2024/01/05 01:55:46;;;;;;;4.70;1.20;;;7.10;63.90;;;;;;4920398;29;20063;-76
2024/01/05 01:58:15;;;;;;;5.00;1.42;;;7.10;63.50;;;;;;4920304;29;20111;-75
2024/01/05 02:00:41;;;;;;;5.95;1.30;;;7.10;63.40;;;;;;4920289;29;20482;-75
2024/01/05 02:03:07;;;;;;;4.63;1.38;;;7.20;63.10;;;;;;4920249;29;20036;-75
2024/01/05 02:05:33;;;;;;;6.93;1.40;;;7.20;62.90;;;;;;4920665;29;20089;-75
2024/01/05 02:07:59;;;;;;;6.40;1.38;;;7.20;62.60;;;;;;4922618;29;20032;-76
2024/01/05 02:10:25;;;;;;;5.28;0.93;;;7.20;62.10;;;;;;4920291;29;20051;-75
2024/01/05 02:12:51;;;;;;;3.15;1.02;;;7.20;62.40;;;;;;4919996;29;20119;-76
2024/01/05 02:15:17;;;;;;;6.93;1.50;;;7.20;62.40;;;;;;4920098;29;20028;-75
2024/01/05 02:17:43;;;;;;;3.55;0.95;;;7.20;62.30;;;;;;4918667;29;20478;-75
2024/01/05 02:20:08;;;;;;;4.00;1.25;;;7.20;62.00;;;;;;4919932;29;20028;-75
2024/01/05 02:22:37;;;;;;;2.58;0.80;;;7.10;62.10;;;;;;4919855;29;20028;-75
2024/01/05 02:25:03;;;;;;;3.50;1.00;;;7.10;62.30;;;;;;4919884;29;20055;-75
2024/01/05 02:27:29;;;;;;;8.43;1.70;;;7.10;62.40;;;;;;4919715;29;20024;-75
2024/01/05 02:29:54;;;;;;;4.75;1.40;;;7.10;62.60;;;;;;4919786;29;20034;-75
2024/01/05 02:32:20;;;;;;;3.38;1.02;;;7.10;62.80;;;;;;4918442;29;20036;-75
2024/01/05 02:34:46;;;;;;;5.18;1.00;;;7.10;62.50;;;;;;4919629;29;20037;-75
2024/01/05 02:37:11;;;;;;;6.10;1.10;;;7.10;59.10;;;;;;4919589;29;20032;-74
2024/01/05 02:39:37;;;;;;;3.25;0.70;;;7.20;56.90;;;;;;4919554;29;20028;-74
2024/01/05 02:42:02;;;;;;;2.70;0.75;;;7.30;56.50;;;;;;4918354;29;20028;-74
2024/01/05 02:44:28;;;;;;;3.90;0.90;;;7.40;56.00;;;;;;4919500;29;20032;-75
2024/01/05 02:46:54;;;;;;;3.33;0.65;;;7.40;55.40;;;;;;4919621;29;20032;-79
2024/01/05 02:49:19;;;;;;;3.00;0.82;;;7.40;54.50;;;;;;4919545;29;20024;-74
2024/01/05 02:51:45;;;;;;;3.97;0.80;;;7.50;55.10;;;;;;4918856;29;20040;-74
2024/01/05 02:54:11;;;;;;;2.05;0.50;;;7.50;54.50;;;;;;4920220;29;20401;-74
2024/01/05 02:56:36;;;;;;;2.30;0.80;;;7.50;53.70;;;;;;4902223;29;20028;-73
2024/01/05 02:59:04;;;;;;;1.90;0.60;;;7.60;53.90;;;;;;4919622;29;20033;-74
2024/01/05 03:01:30;;;;;;;1.92;0.70;;;7.60;54.00;;;;;;4919194;29;20024;-73
2024/01/05 03:03:57;;;;;;;1.50;0.45;;;7.60;54.10;;;;;;4919124;29;20028;-74
2024/01/05 03:06:23;;;;;;;1.42;0.73;;;7.60;53.60;;;;;;4918503;29;20381;-74
2024/01/05 03:08:48;;;;;;;2.15;0.70;;;7.60;53.50;;;;;;4918876;29;20052;-74
2024/01/05 03:11:14;;;;;;;3.47;0.98;;;7.60;53.80;;;;;;4917792;29;20137;-76
2024/01/05 03:13:39;;;;;;;1.75;0.70;;;7.70;54.00;;;;;;4919043;29;20024;-76
2024/01/05 03:16:05;;;;;;;1.88;0.60;;;7.70;54.10;;;;;;4917756;29;20020;-77
2024/01/05 03:18:31;;;;;;;4.38;1.17;;;7.60;54.50;;;;;;4918945;29;20032;-74
2024/01/05 03:20:57;;;;;;;3.00;1.20;;;7.60;55.00;;;;;;4917659;29;20083;-76
2024/01/05 03:23:22;;;;;;;3.55;0.90;;;7.60;55.20;;;;;;4921490;29;20032;-75
2024/01/05 03:25:48;;;;;;;3.08;0.80;;;7.60;56.00;;;;;;4918789;29;20097;-74
2024/01/05 03:28:14;;;;;;;3.25;0.70;;;7.60;56.20;;;;;;4918823;29;20055;-74
2024/01/05 03:30:42;;;;;;;1.77;0.60;;;7.60;55.70;;;;;;4918717;29;20020;-75
2024/01/05 03:33:08;;;;;;;2.05;0.50;;;7.60;55.70;;;;;;4918485;29;20063;-75
2024/01/05 03:35:33;;;;;;;5.13;0.98;;;7.60;55.80;;;;;;4918689;29;20031;-75
2024/01/05 03:37:59;;;;;;;3.45;0.90;;;7.60;56.20;;;;;;4918622;29;20035;-75
2024/01/05 03:40:24;;;;;;;3.10;0.90;;;7.60;56.30;;;;;;4918481;29;20036;-75
2024/01/05 03:42:50;;;;;;;4.55;1.27;;;7.50;56.50;;;;;;4917257;29;20031;-75
2024/01/05 03:45:16;;;;;;;2.65;1.00;;;7.60;56.60;;;;;;4918537;29;20051;-75
2024/01/05 03:47:41;;;;;;;3.78;0.82;;;7.60;56.30;;;;;;4918374;29;20099;-75
2024/01/05 03:50:07;;;;;;;1.98;0.82;;;7.70;56.60;;;;;;4918412;29;20032;-75
2024/01/05 03:52:33;;;;;;;3.90;0.82;;;7.70;56.70;;;;;;4918261;29;20434;-75
2024/01/05 03:54:58;;;;;;;4.93;1.05;;;7.60;56.50;;;;;;4917356;29;20043;-75
2024/01/05 03:57:24;;;;;;;5.68;1.20;;;7.60;56.70;;;;;;4918196;29;20063;-75
2024/01/05 03:59:50;;;;;;;2.63;0.82;;;7.60;56.80;;;;;;4918215;29;20051;-75
2024/01/05 04:02:16;;;;;;;2.70;1.10;;;7.70;56.70;;;;;;4918213;29;20050;-77
2024/01/05 04:04:42;;;;;;;3.08;0.80;;;7.70;56.60;;;;;;4916823;29;20021;-77
2024/01/05 04:07:07;;;;;;;3.85;1.10;;;7.70;57.00;;;;;;4918095;29;20028;-75
2024/01/05 04:09:33;;;;;;;3.15;0.80;;;7.60;57.10;;;;;;4917948;29;20148;-76
2024/01/05 04:11:59;;;;;;;3.63;1.02;;;7.60;57.20;;;;;;4917883;29;20079;-74
2024/01/05 04:14:26;;;;;;;4.55;1.15;;;7.60;57.10;;;;;;4918048;29;20143;-74
2024/01/05 04:16:51;;;;;;;3.13;1.27;;;7.60;57.30;;;;;;4916849;29;20103;-73
2024/01/05 04:19:17;;;;;;;5.50;1.20;;;7.60;57.50;;;;;;4917852;29;20084;-75
2024/01/05 04:21:42;;;;;;;6.43;1.08;;;7.50;57.80;;;;;;4917806;29;20389;-75
2024/01/05 04:24:08;;;;;;;4.40;1.00;;;7.50;58.20;;;;;;4917675;29;20027;-75
2024/01/05 04:26:34;;;;;;;4.78;1.20;;;7.50;58.30;;;;;;4917819;29;20422;-75
2024/01/05 04:29:00;;;;;;;4.55;1.58;;;7.40;58.40;;;;;;4917700;29;20056;-76
2024/01/05 04:31:25;;;;;;;2.35;0.77;;;7.40;59.30;;;;;;4917618;29;20024;-75
2024/01/05 04:33:51;;;;;;;3.40;0.95;;;7.40;58.50;;;;;;4916708;29;20492;-77
2024/01/05 04:36:18;;;;;;;5.38;1.35;;;7.40;58.50;;;;;;4900752;29;20020;-76
2024/01/05 04:38:53;;;;;;;;;;;7.40;58.70;;;;;;5094530;27;20393;-76
2024/01/05 04:41:19;;;;;;;3.15;1.10;;;7.40;58.80;;;;;;5106548;28;19912;-75
2024/01/05 04:43:44;;;;;;;5.00;1.08;;;7.40;59.80;;;;;;5089344;28;20494;-75
2024/01/05 04:46:10;;;;;;;3.83;0.90;;;7.40;58.80;;;;;;5088980;28;20038;-75
2024/01/05 04:48:36;;;;;;;2.47;1.05;;;7.40;58.90;;;;;;5089122;28;20120;-77
2024/01/05 04:51:02;;;;;;;6.47;1.13;;;7.40;58.90;;;;;;5088568;28;20032;-76
2024/01/05 04:53:28;;;;;;;4.93;1.10;;;7.40;58.90;;;;;;5089049;28;20020;-75
2024/01/05 04:55:53;;;;;;;4.95;1.05;;;7.40;58.80;;;;;;5088597;28;20027;-75
2024/01/05 04:58:19;;;;;;;4.53;1.95;;;7.40;59.10;;;;;;5072086;28;20032;-75
2024/01/05 05:00:45;;;;;;;4.15;1.70;;;7.40;59.10;;;;;;5089076;28;20063;-77
2024/01/05 05:03:11;;;;;;;5.47;1.40;;;7.40;59.10;;;;;;5088922;28;20526;-76
2024/01/05 05:05:37;;;;;;;2.63;0.80;;;7.30;59.00;;;;;;5088827;28;20025;-75
2024/01/05 05:08:03;;;;;;;4.43;1.08;;;7.40;59.20;;;;;;5088748;28;20024;-75
2024/01/05 05:10:28;;;;;;;5.28;1.00;;;7.40;59.20;;;;;;5088822;28;20111;-75
2024/01/05 05:12:54;;;;;;;3.50;1.10;;;7.40;58.90;;;;;;5088680;28;20112;-76
2024/01/05 05:15:19;;;;;;;2.60;1.00;;;7.40;59.20;;;;;;5088567;28;20021;-75
2024/01/05 05:17:45;;;;;;;2.92;1.00;;;7.50;59.80;;;;;;5088493;28;20028;-76
2024/01/05 05:20:12;;;;;;;1.52;0.52;;;7.40;60.30;;;;;;5088183;28;20024;-76
2024/01/05 05:22:38;;;;;;;3.00;1.00;;;7.30;60.90;;;;;;5088230;28;20474;-75
2024/01/05 05:25:04;;;;;;;4.80;1.20;;;7.30;61.30;;;;;;5088207;28;20032;-76
2024/01/05 05:27:30;;;;;;;3.83;0.98;;;7.20;61.40;;;;;;5087471;28;20017;-75
2024/01/05 05:29:55;;;;;;;4.43;1.65;;;7.20;61.60;;;;;;5089759;28;20488;-76
2024/01/05 05:32:21;;;;;;;8.20;2.90;;;7.10;62.00;;;;;;5087969;28;20027;-76
2024/01/05 05:34:48;;;;;;;5.60;2.20;;;7.00;62.30;;;;;;5088075;28;20031;-77
2024/01/05 05:37:13;;;;;;;4.32;1.42;;;7.00;62.70;;;;;;5087745;28;20512;-76
2024/01/05 05:39:39;;;;;;;4.57;1.52;;;6.90;63.20;;;;;;5088167;28;20035;-76
2024/01/05 05:42:04;;;;;;;5.32;2.10;;;6.90;63.30;;;;;;5087758;28;20028;-75
2024/01/05 05:44:30;;;;;;;3.47;1.67;;;6.80;63.70;;;;;;5089445;28;20024;-74
2024/01/05 05:46:56;;;;;;;2.58;1.40;;;6.80;63.90;;;;;;5088030;28;20035;-76
2024/01/05 05:49:22;;;;;;;5.78;2.22;;;6.80;63.90;;;;;;5079155;28;20019;-76
2024/01/05 05:51:47;;;;;;;4.38;1.70;;;6.80;64.10;;;;;;5074371;28;20032;-76
2024/01/05 05:54:13;;;;;;;4.88;1.70;;;6.80;64.20;;;;;;5073914;28;20028;-76
2024/01/05 05:56:39;;;;;;;4.97;1.70;;;6.80;64.30;;;;;;5073995;28;20027;-76
2024/01/05 05:59:05;;;;;;;3.80;1.17;;;6.80;64.40;;;;;;5057652;28;20116;-76
2024/01/05 06:01:31;;;;;;;3.00;1.45;;;6.80;64.60;;;;;;5074243;28;20427;-74
2024/01/05 06:03:57;;;;;;;2.35;0.90;;;6.80;64.80;;;;;;5075328;28;20499;-74
2024/01/05 06:06:23;;;;;;;4.45;1.48;;;6.80;65.00;;;;;;5073970;28;20116;-74
2024/01/05 06:08:51;;;;;;;3.83;1.50;;;6.80;65.10;;;;;;5073661;28;20028;-75
2024/01/05 06:11:18;;;;;;;2.70;1.30;;;6.70;65.40;;;;;;5057547;28;20154;-76
2024/01/05 06:13:44;;;;;;;5.97;1.33;;;6.70;65.50;;;;;;5057126;28;20028;-76
2024/01/05 06:16:10;;;;;;;6.07;2.03;;;6.70;65.60;;;;;;5074160;28;20021;-75
2024/01/05 06:18:36;;;;;;;5.22;1.92;;;6.80;65.50;;;;;;5074054;28;20044;-75
2024/01/05 06:21:02;;;;;;;5.00;1.80;;;6.80;65.60;;;;;;5073600;28;20020;-75
2024/01/05 06:23:27;;;;;;;4.70;1.30;;;6.80;65.80;;;;;;5074101;28;20020;-75
2024/01/05 06:25:53;;;;;;;4.50;1.48;;;6.80;66.00;;;;;;5074020;28;20475;-75
2024/01/05 06:28:18;;;;;;;4.95;1.20;;;6.80;66.20;;;;;;5073821;28;20032;-75
2024/01/05 06:30:44;;;;;;;8.05;2.00;;;6.80;66.60;;;;;;5073463;28;20016;-75
2024/01/05 06:33:09;;;;;;;5.53;1.40;;;6.80;66.90;;;;;;5073774;28;20059;-75
2024/01/05 06:35:35;;;;;;;5.22;1.38;;;6.90;66.80;;;;;;5073614;28;20481;-74
2024/01/05 06:38:00;;;;;;;7.03;1.75;;;7.00;66.30;;;;;;5056381;28;20155;-75
2024/01/05 06:40:26;;;;;;;6.00;1.42;;;7.00;66.10;;;;;;5073286;28;20055;-75
2024/01/05 06:42:54;;;;;;;5.97;1.75;;;7.00;66.70;;;;;;5073073;28;20444;-75
2024/01/05 06:45:20;;;;;;;2.78;1.38;;;7.00;66.30;;;;;;5074718;28;20031;-74
2024/01/05 06:47:46;;;;;;;5.38;1.40;;;7.00;66.20;;;;;;5073329;28;20024;-74
2024/01/05 06:50:12;;;;;;;4.63;1.30;;;7.00;65.90;;;;;;5072664;28;20043;-74
2024/01/05 06:52:38;;;;;;;4.40;1.58;;;7.10;65.80;;;;;;5072977;28;20137;-74
2024/01/05 06:55:05;;;;;;;6.10;1.55;;;7.20;65.50;;;;;;5056344;28;20492;-74
2024/01/05 06:57:35;;;;;;;6.68;1.80;;;7.20;65.40;;;;;;5073021;28;20044;-74
2024/01/05 07:00:11;;;;;;;6.93;1.67;;;7.20;65.10;;;;;;5072502;28;20025;-74
2024/01/05 07:02:37;;;;;;;;;;;7.30;65.20;;;;;;5067964;28;20503;-74
2024/01/05 07:05:03;;;;;;;;;;;7.30;65.10;;;;;;5073446;28;19904;-74
2024/01/05 07:07:29;;;;;;;4.68;1.50;;;7.30;65.20;;;;;;5072990;28;19958;-76
2024/01/05 07:09:55;;;;;;;6.78;1.90;;;7.20;65.30;;;;;;5075255;28;20043;-74
2024/01/05 07:12:21;;;;;;;4.00;1.30;;;7.20;65.50;;;;;;5056198;28;20033;-75
2024/01/05 07:14:47;;;;;;;4.80;1.52;;;7.20;65.80;;;;;;5056048;28;20480;-74
2024/01/05 07:17:12;;;;;;;3.35;1.58;;;7.20;66.00;;;;;;5072450;28;20040;-76
2024/01/05 07:19:39;;;;;;;4.82;1.60;;;7.10;66.00;;;;;;5072564;28;20024;-76
2024/01/05 07:22:06;;;;;;;10.02;2.28;;;7.10;66.10;;;;;;5072537;28;20484;-74
2024/01/05 07:24:37;;;;;;;7.15;2.50;;;7.10;66.20;;;;;;5072511;28;20056;-75
2024/01/05 07:27:06;;;;;;;6.47;2.50;;;7.10;66.30;;;;;;5072827;28;20024;-76
2024/01/05 07:29:31;;;;;;;6.50;2.75;;;7.10;66.60;;;;;;5072380;28;20303;-74
2024/01/05 07:31:57;;;;;;;7.85;3.30;;;7.00;66.90;;;;;;5073387;28;20031;-76
2024/01/05 07:34:22;;;;;;;8.02;3.38;;;7.00;67.10;;;;;;5072591;28;20056;-75
2024/01/05 07:36:48;;;;;;;7.63;3.60;;;7.00;67.30;;;;;;5072228;28;20076;-77
2024/01/05 07:39:15;;;;;;;8.48;2.78;;;7.00;67.50;;;;;;5073831;28;20024;-77
2024/01/05 07:41:40;;;;;;;4.72;2.40;;;7.00;67.60;;;;;;5072354;28;20131;-77
2024/01/05 07:44:06;;;;;;;6.90;2.40;;;7.00;67.70;;;;;;5073125;28;20389;-76
2024/01/05 07:46:32;;;;;;;6.07;2.97;;;7.10;68.00;;;;;;5072191;28;20114;-77
2024/01/05 07:48:58;;;;;;;5.80;2.85;;;7.10;68.00;;;;;;5072229;28;20034;-74
2024/01/05 07:51:23;;;;;;;7.45;2.65;;;7.10;67.90;;;;;;5072176;28;20086;-75
2024/01/05 07:53:51;;;;;;;6.25;2.38;;;7.10;67.80;;;;;;5072112;28;20025;-75
2024/01/05 07:56:17;;;;;;;6.22;2.53;;;7.10;67.90;;;;;;5072096;28;20024;-76
2024/01/05 07:58:46;;;;;;;7.53;2.60;;;7.10;67.90;;;;;;5072099;28;20059;-77
2024/01/05 08:01:15;;;;;;;5.28;2.50;;;7.10;67.70;;;;;;5071978;28;20031;-74
2024/01/05 08:03:45;;;;;;;4.20;2.17;;;7.10;67.70;;;;;;5072108;28;20067;-76
2024/01/05 08:06:18;;;;;;;6.82;2.25;;;7.10;67.70;;;;;;5071980;28;20023;-74
2024/01/05 08:08:45;;;;;;;5.90;2.88;;;7.10;67.60;;;;;;5071835;28;20023;-75
2024/01/05 08:11:11;;;;;;;7.25;2.65;;;7.10;67.70;;;;;;5071199;28;20070;-76
2024/01/05 08:13:38;;;;;;;8.25;2.90;;;7.10;67.70;;;;;;5071579;28;20028;-76
2024/01/05 08:16:06;;;;;;;9.23;3.35;;;7.10;67.50;;;;;;5055126;28;20043;-76
2024/01/05 08:18:33;;;;;;;10.70;3.42;;;7.10;67.30;;;;;;5071206;28;20074;-76
2024/01/05 08:20:58;;;;;;;12.15;4.10;;;7.00;67.70;;;;;;5073374;28;20021;-76
2024/01/05 08:23:24;;;;;;;9.60;4.35;;;6.90;68.30;;;;;;5071942;28;20031;-76
2024/01/05 08:25:50;;;;;;;11.32;5.20;;;6.90;68.40;;;;;;5072168;28;20052;-76
2024/01/05 08:28:15;;;;;;;9.85;4.53;;;6.90;68.50;;;;;;5071540;28;20503;-76
2024/01/05 08:30:42;;;;;;;9.68;4.95;;;6.90;68.70;;;;;;5071672;28;20126;-76
2024/01/05 08:33:08;;;;;;;14.32;6.00;;;6.90;68.90;;;;;;5071706;28;20322;-76
2024/01/05 08:35:37;;;;;;;29.05;15.38;;;6.90;68.90;;;;;;5071449;28;20038;-76
2024/01/05 08:38:03;;;;;;;55.25;30.23;;;6.80;68.80;;;;;;5071193;28;20128;-76
2024/01/05 08:40:30;;;;;;;105.13;58.88;;;6.90;69.20;;;;;;5054480;28;20074;-76
2024/01/05 08:42:56;;;;;;;109.70;62.20;;;6.80;69.10;;;;;;5071077;28;20907;-76
2024/01/05 08:45:23;;;;;;;22.33;13.57;;;6.80;69.00;;;;;;5054685;28;20025;-78
2024/01/05 08:47:49;;;;;;;22.92;17.73;;;6.80;69.00;;;;;;5071580;28;20024;-76
2024/01/05 08:50:17;;;;;;;15.63;10.43;;;6.90;69.00;;;;;;5070976;28;20090;-74
2024/01/05 08:52:43;;;;;;;11.65;7.03;;;7.00;68.90;;;;;;5071298;28;20465;-75
2024/01/05 08:55:09;;;;;;;16.27;11.52;;;7.10;68.90;;;;;;5071520;28;20461;-76
2024/01/05 08:57:35;;;;;;;12.50;8.93;;;7.20;68.40;;;;;;5054469;28;20512;-77
2024/01/05 09:00:01;;;;;;;16.48;11.02;;;7.30;68.20;;;;;;5071355;28;20020;-77
2024/01/05 09:02:27;;;;;;;13.57;9.57;;;7.30;67.90;;;;;;5071112;28;20024;-76
2024/01/05 09:04:52;;;;;;;17.17;9.88;;;7.40;67.70;;;;;;5071942;28;20036;-77
2024/01/05 09:07:18;;;;;;;16.08;9.20;;;7.50;67.60;;;;;;5071479;28;20025;-75
2024/01/05 09:09:43;;;;;;;8.85;4.43;;;7.50;67.40;;;;;;5071126;28;20024;-76
2024/01/05 09:12:10;;;;;;;10.95;5.88;;;7.50;67.00;;;;;;5072524;28;20031;-75
2024/01/05 09:14:37;;;;;;;24.77;13.90;;;7.50;66.80;;;;;;5071196;28;20025;-76
2024/01/05 09:17:03;;;;;;;14.98;7.18;;;7.50;67.00;;;;;;5071096;28;20078;-76
2024/01/05 09:19:29;;;;;;;35.72;20.63;;;7.40;67.20;;;;;;5070650;28;20111;-77
2024/01/05 09:21:55;;;;;;;27.83;15.85;;;7.40;67.50;;;;;;5071251;28;20148;-75
2024/01/05 09:24:21;;;;;;;27.65;15.05;;;7.40;67.60;;;;;;5073057;28;20056;-75
2024/01/05 09:26:47;;;;;;;29.10;16.67;;;7.50;67.60;;;;;;5075147;28;20483;-75
2024/01/05 09:29:13;;;;;;;23.95;13.55;;;7.50;67.70;;;;;;5074827;28;20033;-76
2024/01/05 09:31:45;;;;;;;15.05;8.27;;;7.60;67.80;;;;;;5074746;28;20112;-76
2024/01/05 09:34:10;;;;;;;16.27;9.63;;;7.60;67.60;;;;;;5074987;28;20293;-75
2024/01/05 09:36:41;;;;;;;13.32;7.97;;;7.60;67.40;;;;;;5074973;28;20374;-78
2024/01/05 09:39:07;;;;;;;45.83;40.97;;;7.70;67.30;;;;;;5061308;28;20043;-74
2024/01/05 09:41:33;;;;;;;24.88;21.80;;;7.80;67.00;;;;;;5074665;28;20107;-77
2024/01/05 09:44:00;;;;;;;20.58;15.00;;;7.90;67.00;;;;;;5074801;28;20473;-78
2024/01/05 09:46:28;;;;;;;20.23;16.23;;;7.90;66.40;;;;;;5074875;28;20024;-76
2024/01/05 09:48:57;;;;;;;16.95;10.23;;;7.90;66.50;;;;;;5074440;28;20162;-78
2024/01/05 09:51:29;;;;;;;12.38;8.68;;;7.90;67.40;;;;;;5058078;28;20024;-77
2024/01/05 09:53:54;;;;;;;13.60;8.30;;;7.90;66.60;;;;;;5073993;28;20055;-79
2024/01/05 09:56:21;;;;;;;14.95;8.57;;;8.00;66.60;;;;;;5074139;28;20028;-80
2024/01/05 09:58:50;;;;;;;83.50;43.15;;;8.00;66.50;;;;;;5073865;28;20182;-79
2024/01/05 10:01:25;;;;;;;50.83;26.35;;;8.00;66.50;;;;;;5075634;28;20093;-80
2024/01/05 10:04:01;;;;;;;20.83;10.43;;;8.10;66.70;;;;;;5074500;28;20028;-80
2024/01/05 10:06:28;;;;;;;90.35;47.50;;;8.10;66.70;;;;;;5074189;28;20078;-79
2024/01/05 10:08:58;;;;;;;25.25;14.85;;;8.20;66.60;;;;;;5074359;28;20077;-78
2024/01/05 10:11:31;;;;;;;26.98;17.67;;;8.10;66.40;;;;;;5074204;28;20481;-80
2024/01/05 10:14:02;;;;;;;9.07;5.20;;;8.10;66.30;;;;;;5074968;28;20020;-79
2024/01/05 10:16:37;;;;;;;7.03;4.30;;;8.20;66.40;;;;;;5075441;28;20033;-78
2024/01/05 10:19:10;;;;;;;6.80;3.92;;;8.20;66.40;;;;;;5074116;28;20032;-77
2024/01/05 10:21:36;;;;;;;13.25;6.30;;;8.20;66.50;;;;;;5073997;28;20028;-80
2024/01/05 10:24:03;;;;;;;12.23;9.23;;;8.30;66.80;;;;;;5073888;28;20028;-79
2024/01/05 10:26:33;;;;;;;12.68;5.63;;;8.30;67.00;;;;;;5073770;28;20025;-81
2024/01/05 10:29:13;;;;;;;6.35;4.18;;;8.30;66.80;;;;;;5074941;28;20024;-80
2024/01/05 10:31:39;;;;;;;8.27;4.13;;;8.40;66.80;;;;;;5056816;28;20093;-81
2024/01/05 10:34:04;;;;;;;6.07;3.20;;;8.40;66.70;;;;;;5073354;28;20028;-80
2024/01/05 10:36:30;;;;;;;7.45;2.80;;;8.50;66.90;;;;;;5073218;28;20024;-77
2024/01/05 10:38:56;;;;;;;6.72;2.42;;;8.50;66.70;;;;;;5073532;28;20032;-80
2024/01/05 10:41:22;;;;;;;5.25;2.40;;;8.60;66.30;;;;;;5073458;28;20500;-79
2024/01/05 10:43:49;;;;;;;6.10;1.98;;;8.60;66.00;;;;;;5074389;28;20085;-79
2024/01/05 10:46:17;;;;;;;6.97;2.33;;;8.70;66.00;;;;;;5073120;28;20020;-78
2024/01/05 10:48:43;;;;;;;6.50;2.50;;;8.80;65.90;;;;;;5073874;28;20024;-77
2024/01/05 10:51:12;;;;;;;8.38;2.97;;;8.70;65.70;;;;;;5074021;28;20020;-79
2024/01/05 10:53:38;;;;;;;7.25;2.35;;;8.90;65.20;;;;;;5077138;28;20384;-79
2024/01/05 10:56:06;;;;;;;6.05;1.88;;;8.90;64.50;;;;;;5074744;28;20159;-79
2024/01/05 10:58:32;;;;;;;5.15;1.48;;;8.90;64.80;;;;;;5073111;28;20044;-79
2024/01/05 11:01:02;;;;;;;5.78;1.42;;;8.80;64.50;;;;;;5074209;28;20020;-80
2024/01/05 11:03:40;;;;;;;6.03;2.30;;;8.80;65.20;;;;;;5072592;28;20029;-78
2024/01/05 11:06:10;;;;;;;2.63;1.27;;;8.80;65.20;;;;;;5074042;28;20066;-78
2024/01/05 11:09:21;;;;;;;4.68;1.75;;;8.80;65.10;;;;;;5072653;28;20029;-80
2024/01/05 11:12:03;;;;;;;4.53;1.45;;;8.80;65.00;;;;;;5072623;28;20025;-78
2024/01/05 11:14:52;;;;;;;6.20;2.08;;;8.90;65.20;;;;;;5072448;28;20474;-77
2024/01/05 11:17:47;;;;;;;4.30;1.63;;;8.80;65.30;;;;;;5073047;28;20039;-75
2024/01/05 11:20:42;;;;;;;5.63;2.10;;;8.90;64.90;;;;;;5072424;28;20033;-77
2024/01/05 11:23:09;;;;;;;8.05;1.63;;;8.90;65.20;;;;;;5072760;28;20021;-80
2024/01/05 11:25:35;;;;;;;5.07;1.20;;;8.90;65.00;;;;;;5074038;28;20064;-81
2024/01/05 11:28:02;;;;;;;4.80;1.27;;;9.00;65.20;;;;;;5072844;28;20036;-78
2024/01/05 11:30:53;;;;;;;2.75;1.38;;;8.90;65.30;;;;;;5072739;28;20021;-77
2024/01/05 11:33:49;;;;;;;5.57;1.77;;;9.00;65.10;;;;;;5069336;28;20033;-80
2024/01/05 11:36:51;;;;;;;7.65;1.73;;;9.10;65.20;;;;;;5072784;28;20024;-79
2024/01/05 11:39:45;;;;;;;5.72;1.40;;;9.00;65.50;;;;;;5074587;28;20077;-78
2024/01/05 11:42:31;;;;;;;6.25;1.67;;;9.10;65.50;;;;;;5072639;28;20024;-76
2024/01/05 11:44:58;;;;;;;4.30;1.25;;;9.10;65.20;;;;;;5072651;28;20137;-75
2024/01/05 11:47:46;;;;;;;5.05;1.45;;;9.10;65.20;;;;;;5071354;28;20021;-75
2024/01/05 11:50:32;;;;;;;6.88;1.10;;;9.10;65.20;;;;;;5072328;28;20052;-76
2024/01/05 11:53:24;;;;;;;6.05;1.85;;;9.00;65.40;;;;;;5072028;28;20020;-78
2024/01/05 11:55:56;;;;;;;4.60;1.58;;;9.10;65.70;;;;;;5073580;28;20028;-79
2024/01/05 11:58:32;;;;;;;5.07;1.65;;;9.00;65.70;;;;;;5072904;28;20039;-80
2024/01/05 12:01:03;;;;;;;6.10;1.70;;;9.00;66.30;;;;;;5073489;28;20020;-78
2024/01/05 12:03:30;;;;;;;4.78;1.52;;;9.00;66.20;;;;;;5072060;28;20032;-79
2024/01/05 12:05:57;;;;;;;4.55;1.45;;;9.00;66.70;;;;;;5089574;28;20028;-77
2024/01/05 12:08:23;;;;;;;7.50;1.90;;;9.00;67.50;;;;;;5076116;28;20029;-77
2024/01/05 12:10:54;;;;;;;6.40;1.50;;;9.00;66.90;;;;;;5073250;28;20103;-77
2024/01/05 12:13:27;;;;;;;5.38;1.60;;;9.00;66.90;;;;;;5071906;28;20025;-79
2024/01/05 12:15:54;;;;;;;4.78;1.98;;;9.10;66.80;;;;;;5071978;28;20414;-79
2024/01/05 12:18:25;;;;;;;6.22;1.60;;;9.00;66.70;;;;;;5071803;28;20032;-77
2024/01/05 12:20:55;;;;;;;5.32;1.48;;;9.00;67.20;;;;;;5072107;28;20369;-80
2024/01/05 12:23:21;;;;;;;4.00;1.40;;;9.00;68.30;;;;;;5073013;28;20034;-78
2024/01/05 12:26:17;;;;;;;5.45;1.60;;;9.00;68.20;;;;;;5071878;28;20058;-77
2024/01/05 12:28:44;;;;;;;3.22;1.40;;;9.00;68.20;;;;;;5059310;28;20048;-77
2024/01/05 12:31:10;;;;;;;2.83;1.23;;;9.00;68.30;;;;;;5071912;28;20362;-77
2024/01/05 12:33:37;;;;;;;3.13;1.15;;;9.00;68.50;;;;;;5071395;28;20504;-79
2024/01/05 12:36:04;;;;;;;4.93;1.40;;;9.10;68.80;;;;;;5071894;28;20039;-79
2024/01/05 12:38:31;;;;;;;4.57;1.80;;;9.10;69.00;;;;;;5071668;28;20139;-73
2024/01/05 12:41:10;;;;;;;3.33;1.65;;;9.20;69.20;;;;;;5071323;28;20032;-76
2024/01/05 12:43:36;;;;;;;5.05;1.75;;;9.30;69.40;;;;;;5071336;28;20021;-77
2024/01/05 12:46:06;;;;;;;3.65;1.38;;;9.30;68.70;;;;;;5071555;28;20161;-77
2024/01/05 12:48:32;;;;;;;5.40;2.15;;;9.40;68.00;;;;;;5072690;28;20059;-76
2024/01/05 12:51:04;;;;;;;2.97;1.25;;;9.30;67.70;;;;;;5071528;28;20079;-76
2024/01/05 12:53:30;;;;;;;2.38;0.77;;;9.20;67.50;;;;;;5072387;28;20481;-78
2024/01/05 12:56:12;;;;;;;3.35;1.42;;;9.10;66.20;;;;;;5071399;28;20021;-75
2024/01/05 12:58:39;;;;;;;1.42;0.90;;;9.00;68.00;;;;;;5073070;28;20385;-79